Latest Coastal Weather Observations for Gove Airport

IDD60701

Issued at 10:11 pm CST Saturday 23 September 2017 (issued every 10 minutes, with the page automatically refreshed every 10 minutes)

About coastal observations | Map of coastal stations | Coastal observations for NT | Marine services | Other Formats
Station Details ID: 014508 Name: GOVE AIRPORT Lat: -12.27 Lon: 136.82 Height: 51.6 m
Data from the previous 72 hours. | See also: Recent months at Gove Airport
Date/Time
CST
Temp
°C
Wind Pressure Rain since
9am
mm
Weather Cloud Vis
km
Sea
Height
m
Swell
Dir  Spd
kts
Gust
kts
hPa Trend Height
m
Period
s
Dir
23/10:00pm 22.9 SE 2 3 1012.8 - 0.0 - Clear 10 - - - -
23/09:30pm 23.5 SE 2 3 1012.7 - 0.0 - - 10 - - - -
23/09:00pm 24.6 SE 3 4 1012.5 F 0.0 - - 10 - - - -
23/08:30pm 25.3 ESE 5 6 1012.3 - 0.0 - - 10 - - - -
23/08:00pm 25.6 ESE 6 7 1012.1 - 0.0 - - 10 - - - -
23/07:30pm 25.8 ESE 7 9 1011.7 - 0.0 - - 10 - - - -
23/07:00pm 26.3 ESE 8 11 1011.5 - 0.0 - Partly cloudy 10 - - - -
23/06:30pm 26.7 ESE 9 12 1011.4 - 0.0 - Partly cloudy 10 - - - -
23/06:00pm 27.4 ESE 9 12 1011.2 F 0.0 - Cloudy 10 - - - -
23/05:30pm 27.9 E 10 13 1011.2 - 0.0 - Partly cloudy 10 - - - -
23/05:00pm 28.0 E 12 17 1010.8 - 0.0 - Partly cloudy 10 - - - -
23/04:30pm 29.6 ESE 12 16 1010.8 - 0.0 - Partly cloudy 10 - - - -
23/04:00pm 29.5 ESE 12 16 1010.9 - 0.0 - Partly cloudy 10 - - - -
23/03:30pm 29.6 ESE 12 18 1011.0 - 0.0 - Partly cloudy 10 - - - -
23/03:00pm 29.7 ENE 14 19 1011.3 R 0.0 - Partly cloudy 10 - - - -
23/02:30pm 30.0 E 14 19 1011.5 - 0.0 - Partly cloudy 10 - - - -
23/02:00pm 30.4 ESE 14 18 1011.7 - 0.0 - Partly cloudy 10 - - - -
23/01:30pm 30.4 ENE 14 21 1012.1 - 0.0 - Partly cloudy 10 - - - -
23/01:00pm 30.4 E 12 19 1012.4 - 0.0 - Partly cloudy 10 - - - -
23/12:30pm 30.7 E 12 19 1012.6 - 0.0 - - 10 - - - -
23/12:00pm 30.4 E 12 18 1013.1 F 0.0 - - 10 - - - -
23/11:30am 30.3 E 12 19 1013.5 - 0.0 - Partly cloudy 10 - - - -
23/11:00am 30.2 E 11 17 1014.0 - 0.0 - Partly cloudy 10 - - - -
23/10:30am 30.3 E 10 17 1014.3 - 0.0 - Partly cloudy 10 - - - -
23/10:00am 29.1 E 11 15 1014.6 - 0.0 - Partly cloudy 10 - - - -
23/09:30am 28.6 ENE 10 18 1014.6 - 0.0 - Partly cloudy 10 - - - -
23/09:00am 28.2 ENE 10 15 1014.5 S 0.0 - Partly cloudy 10 - - - -
23/08:30am 28.5 E 10 13 1014.4 - 0.0 - Partly cloudy 10 - - - -
23/08:00am 27.3 E 6 9 1014.3 - 0.0 - Partly cloudy 10 - - - -
23/07:30am 25.4 E 4 6 1014.1 - 0.0 - Partly cloudy 10 - - - -
23/07:00am 23.1 CALM 0 0 1013.7 - 0.0 - Partly cloudy 10 - - - -
23/06:30am 21.3 CALM 0 0 1013.1 - 0.0 - - 8 - - - -
23/06:00am 21.1 CALM 0 0 1012.7 S 0.0 - - 9 - - - -
23/05:30am 21.3 CALM 0 0 1012.4 - 0.0 - - 10 - - - -
23/05:00am 21.6 CALM 0 0 1012.2 - 0.0 - - 9 - - - -
23/04:30am 21.7 CALM 0 0 1012.0 - 0.0 - - 10 - - - -
23/04:00am 21.4 CALM 0 0 1011.9 - 0.0 - - 10 - - - -
23/03:30am 21.7 CALM 0 0 1011.9 - 0.0 - - 9 - - - -
23/03:00am 21.7 CALM 0 1 1011.9 R 0.0 - - 10 - - - -
23/02:30am 22.2 SSE 2 3 1012.0 - 0.0 - - 9 - - - -
23/02:00am 22.1 S 2 3 1012.2 - 0.0 - - 10 - - - -
23/01:30am 22.0 S 1 3 1012.4 - 0.0 - - 10 - - - -
23/01:00am 22.1 CALM 0 0 1012.7 - 0.0 - - 10 - - - -
23/12:30am 22.0 SSW 3 4 1012.8 - 0.0 - - 10 - - - -
23/12:00am 22.0 SSW 3 4 1013.0 F 0.0 - - 10 - - - -
 
Date/Time
CST
Temp
°C
Wind Pressure Rain since
9am
mm
Weather Cloud Vis
km
Sea
Height
m
Swell
Dir  Spd
kts
Gust
kts
hPa Trend Height
m
Period
s
Dir
22/11:30pm 22.1 SSW 3 4 1013.3 - 0.0 - - 10 - - - -
22/11:00pm 22.5 SSE 2 3 1013.5 - 0.0 - - 10 - - - -
22/10:30pm 23.0 SSE 1 3 1013.5 - 0.0 - - 10 - - - -
22/10:00pm 23.9 SE 3 4 1013.5 - 0.0 - - 10 - - - -
22/09:30pm 24.2 SE 4 4 1013.5 - 0.0 - - 10 - - - -
22/09:00pm 25.0 ESE 5 6 1013.4 S 0.0 - - 10 - - - -
22/08:30pm 25.2 ESE 5 6 1013.2 - 0.0 - - 10 - - - -
22/08:00pm 25.5 ESE 5 6 1013.0 - 0.0 - - 10 - - - -
22/07:30pm 25.7 E 6 7 1012.9 - 0.0 - - 10 - - - -
22/07:00pm 26.0 E 6 8 1012.4 - 0.0 - - 10 - - - -
22/06:30pm 26.3 E 7 9 1012.1 - 0.0 - - 10 - - - -
22/06:00pm 27.0 ESE 8 11 1011.8 F 0.0 - Mostly clear 10 - - - -
22/05:30pm 27.6 E 11 15 1011.7 - 0.0 - Partly cloudy 10 - - - -
22/05:00pm 28.5 ESE 12 16 1011.7 - 0.0 - Partly cloudy 10 - - - -
22/04:30pm 29.0 E 10 15 1011.7 - 0.0 - Partly cloudy 10 - - - -
22/04:00pm 29.7 E 12 17 1011.7 - 0.0 - Partly cloudy 10 - - - -
22/03:30pm 29.8 ESE 10 14 1011.7 - 0.0 - Partly cloudy 10 - - - -
22/03:00pm 29.5 E 11 15 1011.9 R 0.0 - Partly cloudy 10 - - - -
22/02:30pm 29.9 E 13 18 1012.1 - 0.0 - Partly cloudy 10 - - - -
22/02:00pm 29.9 E 13 17 1012.2 - 0.0 - Partly cloudy 10 - - - -
22/01:30pm 30.8 E 13 19 1012.5 - 0.0 - Partly cloudy 10 - - - -
22/01:00pm 30.7 E 11 16 1012.8 - 0.0 - Mostly clear 10 - - - -
22/12:30pm 30.7 ENE 13 19 1013.1 - 0.0 - Mostly clear 10 - - - -
22/12:00pm 30.1 ENE 14 18 1013.4 R 0.0 - Mostly clear 10 - - - -
22/11:30am 30.6 E 12 16 1013.6 - 0.0 - Mostly clear 10 - - - -
22/11:00am 29.8 E 12 17 1013.8 - 0.0 - - 10 - - - -
22/10:30am 30.0 E 9 17 1014.0 - 0.0 - - 10 - - - -
22/10:00am 29.3 E 10 15 1014.1 - 0.0 - Mostly clear 10 - - - -
22/09:30am 29.2 E 9 13 1014.4 - 0.0 - Partly cloudy 10 - - - -
22/09:00am 28.4 E 9 13 1014.4 S 0.0 - Mostly clear 10 - - - -
22/08:30am 28.1 E 8 11 1014.3 - 0.0 - Mostly clear 10 - - - -
22/08:00am 26.9 E 6 8 1014.0 - 0.0 - Mostly clear 10 - - - -
22/07:30am 25.9 ESE 4 5 1013.7 - 0.0 - - 10 - - - -
22/07:00am 22.7 CALM 0 0 1013.4 - 0.0 - - 10 - - - -
22/06:30am 21.5 CALM 0 0 1013.1 - 0.0 - - 10 - - - -
22/06:00am 21.7 CALM 0 0 1012.6 R 0.0 - - 10 - - - -
22/05:30am 21.9 E 2 3 1012.3 - 0.0 - - 10 - - - -
22/05:00am 22.2 E 1 4 1012.0 - 0.0 - - 10 - - - -
22/04:30am 22.0 CALM 0 0 1011.8 - 0.0 - - 10 - - - -
22/04:00am 22.1 CALM 0 0 1011.6 - 0.0 - - 10 - - - -
22/03:30am 22.1 CALM 0 0 1011.6 - 0.0 - - 10 - - - -
22/03:00am 22.2 CALM 0 0 1011.7 R 0.0 - - 10 - - - -
22/02:30am 22.3 CALM 0 0 1011.8 - 0.0 - - 10 - - - -
22/02:00am 22.2 SSE 1 3 1011.8 - 0.0 - - 10 - - - -
22/01:30am 22.3 SSE 2 3 1012.0 - 0.0 - - 10 - - - -
22/01:00am 22.3 SSE 3 4 1012.1 - 0.0 - - 10 - - - -
22/12:30am 22.1 S 3 4 1012.2 - 0.0 - - 10 - - - -
22/12:00am 22.3 SSW 3 4 1012.4 S 0.0 - - 10 - - - -
 
Date/Time
CST
Temp
°C
Wind Pressure Rain since
9am
mm
Weather Cloud Vis
km
Sea
Height
m
Swell
Dir  Spd
kts
Gust
kts
hPa Trend Height
m
Period
s
Dir
21/11:30pm 22.3 S 3 5 1012.6 - 0.0 - - 10 - - - -
21/11:00pm 22.5 S 4 5 1012.8 - 0.0 - - 10 - - - -
21/10:30pm 23.1 S 3 4 1012.8 - 0.0 - - 10 - - - -
21/10:00pm 24.0 SSE 4 6 1012.7 - 0.0 - Partly cloudy 10 - - - -
21/09:30pm 24.1 SE 4 5 1012.6 - 0.0 - Partly cloudy 10 - - - -
21/09:00pm 24.5 SE 4 5 1012.4 F 0.0 - - 10 - - - -
21/08:30pm 25.2 ESE 6 7 1012.2 - 0.0 - Partly cloudy 9 - - - -
21/08:00pm 25.3 ESE 5 7 1012.0 - 0.0 - Partly cloudy 9 - - - -
21/07:30pm 25.5 ESE 5 7 1011.7 - 0.0 - Partly cloudy 10 - - - -
21/07:00pm 25.9 ESE 6 7 1011.4 - 0.0 - - 10 - - - -
21/06:30pm 26.3 ESE 7 9 1011.3 - 0.0 - - 10 - - - -
21/06:00pm 26.7 E 9 12 1011.1 F 0.0 - Partly cloudy 10 - - - -
21/05:30pm 27.7 ESE 10 12 1010.9 - 0.0 - Partly cloudy 10 - - - -
21/05:00pm 28.0 E 11 15 1010.9 - 0.0 - Partly cloudy 10 - - - -
21/04:30pm 28.9 E 10 14 1010.8 - 0.0 - - 10 - - - -
21/04:00pm 29.3 ESE 11 15 1010.8 - 0.0 - - 10 - - - -
21/03:30pm 29.7 ESE 11 16 1010.9 - 0.0 - Partly cloudy 10 - - - -
21/03:00pm 30.5 ESE 14 18 1011.1 R 0.0 - Partly cloudy 10 - - - -
21/02:30pm 30.6 ESE 13 17 1011.2 - 0.0 - Partly cloudy 10 - - - -
21/02:00pm 31.5 ESE 14 19 1011.4 - 0.0 - Partly cloudy 10 - - - -
21/01:30pm 30.7 ESE 14 18 1011.6 - 0.0 - Partly cloudy 10 - - - -
21/01:00pm 29.8 ESE 15 19 1011.9 - 0.0 - Partly cloudy 10 - - - -
21/12:30pm 30.0 ESE 15 19 1012.0 - 0.0 - Partly cloudy 10 - - - -
21/12:00pm 29.9 ESE 16 22 1012.4 R 0.0 - Mostly clear 10 - - - -
21/11:30am 32.0 ESE 13 18 1012.6 - 0.0 - Mostly clear 10 - - - -
21/11:00am 31.2 ESE 14 21 1012.8 - 0.0 - Mostly clear 10 - - - -
21/10:30am 30.6 ESE 15 22 1012.9 - 0.0 - Mostly clear 10 - - - -
21/10:00am 30.4 E 13 19 1013.0 - 0.0 - - 10 - - - -
21/09:30am 29.8 E 12 16 1013.1 - 0.0 - - 10 - - - -
21/09:00am 29.3 ESE 12 17 1013.2 F 0.0 - Mostly clear 10 - - - -
21/08:30am 28.8 E 11 17 1013.2 - 0.0 - - 10 - - - -
21/08:00am 28.1 E 10 14 1013.2 - 0.0 - - 10 - - - -
21/07:30am 26.4 ESE 5 7 1013.0 - 0.0 - - 10 - - - -
21/07:00am 24.4 ESE 3 4 1012.8 - 0.0 - - 9 - - - -
21/06:30am 22.8 CALM 0 0 1012.4 - 0.0 - - 8 - - - -
21/06:00am 22.8 CALM 0 0 1012.0 R 0.0 - - 7 - - - -
21/05:58am 22.6 CALM 0 0 1012.0 - 0.0 - - 7 - - - -
21/05:42am 22.5 S 2 3 1011.7 - 0.0 - - 6 - - - -
21/05:30am 22.8 S 3 4 1011.5 - 0.0 - - 7 - - - -
21/05:00am 22.6 SSW 3 4 1011.4 - 0.0 - - 7 - - - -
21/04:30am 23.2 SE 3 3 1011.1 - 0.0 - - 8 - - - -
21/04:00am 23.6 ESE 3 4 1010.9 - 0.0 - - 7 - - - -
21/03:40am 23.8 ESE 4 5 1010.7 - 0.0 - - 8 - - - -
21/03:30am 23.5 SE 4 4 1010.7 - 0.0 - - 6 - - - -
21/03:00am 23.6 SSE 3 4 1010.8 F 0.0 - - 6 - - - -
21/02:47am 23.7 SSE 4 5 1010.9 - 0.0 - - 6 - - - -
21/02:30am 23.3 S 3 4 1011.1 - 0.0 - - 9 - - - -
21/02:00am 23.9 S 4 5 1011.3 - 0.0 - - 9 - - - -
21/01:30am 23.9 S 4 5 1011.4 - 0.0 - - 10 - - - -
21/01:00am 24.4 SSE 4 6 1011.7 - 0.0 - - 10 - - - -
21/12:30am 24.6 SSE 5 6 1012.0 - 0.0 - - 10 - - - -
21/12:00am 24.7 SSE 5 6 1012.4 F 0.0 - - 10 - - - -
 
Date/Time
CST
Temp
°C
Wind Pressure Rain since
9am
mm
Weather Cloud Vis
km
Sea
Height
m
Swell
Dir  Spd
kts
Gust
kts
hPa Trend Height
m
Period
s
Dir
20/11:30pm 24.9 SSE 6 7 1012.5 - 0.0 - - 10 - - - -
20/11:00pm 25.1 SSE 6 8 1012.7 - 0.0 - - 10 - - - -
20/10:30pm 25.2 SSE 6 7 1012.8 - 0.0 - - 10 - - - -

Other Formats:

Comma delimited format used in spreadsheet applications
http://www.bom.gov.au/fwo/IDD60701/IDD60701.94150.axf

JavaScript Object Notation format (JSON) in row-major order
http://www.bom.gov.au/fwo/IDD60701/IDD60701.94150.json